sensor_id;sensor_type;location;lat;lon;timestamp;temperature;humidity
65692;DHT22;52411;52.716;6.696;2022-10-31T00:00:07;12.70;99.90
65692;DHT22;52411;52.716;6.696;2022-10-31T00:02:33;12.70;99.90
65692;DHT22;52411;52.716;6.696;2022-10-31T00:04:59;12.70;99.90
65692;DHT22;52411;52.716;6.696;2022-10-31T00:07:25;12.70;99.90
65692;DHT22;52411;52.716;6.696;2022-10-31T00:09:50;12.70;99.90
65692;DHT22;52411;52.716;6.696;2022-10-31T00:12:16;12.70;99.90
65692;DHT22;52411;52.716;6.696;2022-10-31T00:14:41;12.70;99.90
65692;DHT22;52411;52.716;6.696;2022-10-31T00:17:07;12.60;99.90
65692;DHT22;52411;52.716;6.696;2022-10-31T00:19:32;12.40;99.90
65692;DHT22;52411;52.716;6.696;2022-10-31T00:21:58;12.30;99.90
65692;DHT22;52411;52.716;6.696;2022-10-31T00:24:23;12.20;99.90
65692;DHT22;52411;52.716;6.696;2022-10-31T00:26:49;12.10;99.90
65692;DHT22;52411;52.716;6.696;2022-10-31T00:29:15;12.10;99.90
65692;DHT22;52411;52.716;6.696;2022-10-31T00:31:40;12.10;99.90
65692;DHT22;52411;52.716;6.696;2022-10-31T00:34:06;12.00;99.90
65692;DHT22;52411;52.716;6.696;2022-10-31T00:36:31;12.00;99.90
65692;DHT22;52411;52.716;6.696;2022-10-31T00:38:58;12.00;99.90
65692;DHT22;52411;52.716;6.696;2022-10-31T00:41:24;11.90;99.90
65692;DHT22;52411;52.716;6.696;2022-10-31T00:43:49;11.70;99.90
65692;DHT22;52411;52.716;6.696;2022-10-31T00:46:15;11.70;99.90
65692;DHT22;52411;52.716;6.696;2022-10-31T00:48:41;11.60;99.90
65692;DHT22;52411;52.716;6.696;2022-10-31T00:51:07;11.70;99.90
65692;DHT22;52411;52.716;6.696;2022-10-31T00:53:32;11.80;99.90
65692;DHT22;52411;52.716;6.696;2022-10-31T00:55:59;11.90;99.90
65692;DHT22;52411;52.716;6.696;2022-10-31T00:58:24;11.90;99.90
65692;DHT22;52411;52.716;6.696;2022-10-31T01:00:50;11.90;99.90
65692;DHT22;52411;52.716;6.696;2022-10-31T01:03:26;12.00;99.90
65692;DHT22;52411;52.716;6.696;2022-10-31T01:08:22;12.10;99.90
65692;DHT22;52411;52.716;6.696;2022-10-31T01:10:58;12.10;99.90
65692;DHT22;52411;52.716;6.696;2022-10-31T01:13:24;12.10;99.90
65692;DHT22;52411;52.716;6.696;2022-10-31T01:15:54;12.00;99.90
65692;DHT22;52411;52.716;6.696;2022-10-31T01:18:20;12.00;99.90
65692;DHT22;52411;52.716;6.696;2022-10-31T01:20:45;12.00;99.90
65692;DHT22;52411;52.716;6.696;2022-10-31T01:23:11;12.00;99.90
65692;DHT22;52411;52.716;6.696;2022-10-31T01:25:37;12.00;99.90
65692;DHT22;52411;52.716;6.696;2022-10-31T01:28:02;12.00;99.90
65692;DHT22;52411;52.716;6.696;2022-10-31T01:30:28;12.00;99.90
65692;DHT22;52411;52.716;6.696;2022-10-31T01:32:53;12.00;99.90
65692;DHT22;52411;52.716;6.696;2022-10-31T01:35:19;12.00;99.90
65692;DHT22;52411;52.716;6.696;2022-10-31T01:37:45;12.00;99.90
65692;DHT22;52411;52.716;6.696;2022-10-31T01:40:10;12.00;99.90
65692;DHT22;52411;52.716;6.696;2022-10-31T01:42:36;12.10;99.90
65692;DHT22;52411;52.716;6.696;2022-10-31T01:45:03;12.20;99.90
65692;DHT22;52411;52.716;6.696;2022-10-31T01:47:45;12.20;99.90
65692;DHT22;52411;52.716;6.696;2022-10-31T01:52:50;12.30;99.90
65692;DHT22;52411;52.716;6.696;2022-10-31T01:55:22;12.30;99.90
65692;DHT22;52411;52.716;6.696;2022-10-31T01:57:51;12.20;99.90
65692;DHT22;52411;52.716;6.696;2022-10-31T02:00:20;12.20;99.90
65692;DHT22;52411;52.716;6.696;2022-10-31T02:02:48;12.10;99.90
65692;DHT22;52411;52.716;6.696;2022-10-31T02:05:20;12.00;99.90
65692;DHT22;52411;52.716;6.696;2022-10-31T02:07:54;11.90;99.90
65692;DHT22;52411;52.716;6.696;2022-10-31T02:10:22;11.70;99.90
65692;DHT22;52411;52.716;6.696;2022-10-31T02:12:51;11.70;99.90
65692;DHT22;52411;52.716;6.696;2022-10-31T02:15:18;11.70;99.90
65692;DHT22;52411;52.716;6.696;2022-10-31T02:17:43;11.70;99.90
65692;DHT22;52411;52.716;6.696;2022-10-31T02:30:40;11.70;99.90
65692;DHT22;52411;52.716;6.696;2022-10-31T02:33:30;11.80;99.90
65692;DHT22;52411;52.716;6.696;2022-10-31T02:41:37;11.60;99.90
65692;DHT22;52411;52.716;6.696;2022-10-31T02:49:27;11.40;99.90
65692;DHT22;52411;52.716;6.696;2022-10-31T02:51:56;11.40;99.90
65692;DHT22;52411;52.716;6.696;2022-10-31T02:54:24;11.40;99.90
65692;DHT22;52411;52.716;6.696;2022-10-31T02:56:52;11.40;99.90
65692;DHT22;52411;52.716;6.696;2022-10-31T02:59:19;11.30;99.90
65692;DHT22;52411;52.716;6.696;2022-10-31T03:13:05;11.00;99.90
65692;DHT22;52411;52.716;6.696;2022-10-31T03:15:45;11.00;99.90
65692;DHT22;52411;52.716;6.696;2022-10-31T03:20:50;10.80;99.90
65692;DHT22;52411;52.716;6.696;2022-10-31T03:23:19;10.80;99.90
65692;DHT22;52411;52.716;6.696;2022-10-31T03:25:45;10.80;99.90
65692;DHT22;52411;52.716;6.696;2022-10-31T03:28:15;10.70;99.90
65692;DHT22;52411;52.716;6.696;2022-10-31T03:30:43;10.40;99.90
65692;DHT22;52411;52.716;6.696;2022-10-31T03:33:17;10.20;99.90
65692;DHT22;52411;52.716;6.696;2022-10-31T03:35:47;9.90;99.90
65692;DHT22;52411;52.716;6.696;2022-10-31T03:38:15;9.80;99.90
65692;DHT22;52411;52.716;6.696;2022-10-31T03:40:43;9.70;99.90
65692;DHT22;52411;52.716;6.696;2022-10-31T03:43:14;9.70;99.90
65692;DHT22;52411;52.716;6.696;2022-10-31T03:45:45;9.70;99.90
65692;DHT22;52411;52.716;6.696;2022-10-31T03:48:12;9.70;99.90
65692;DHT22;52411;52.716;6.696;2022-10-31T03:51:16;9.80;99.90
65692;DHT22;52411;52.716;6.696;2022-10-31T03:53:56;9.80;99.90
65692;DHT22;52411;52.716;6.696;2022-10-31T03:56:36;9.60;99.90
65692;DHT22;52411;52.716;6.696;2022-10-31T04:01:34;9.30;99.90
65692;DHT22;52411;52.716;6.696;2022-10-31T04:04:02;9.10;99.90
65692;DHT22;52411;52.716;6.696;2022-10-31T04:06:29;9.00;99.90
65692;DHT22;52411;52.716;6.696;2022-10-31T04:08:59;9.00;99.90
65692;DHT22;52411;52.716;6.696;2022-10-31T04:11:29;8.90;99.90
65692;DHT22;52411;52.716;6.696;2022-10-31T04:13:56;8.90;99.90
65692;DHT22;52411;52.716;6.696;2022-10-31T04:16:23;8.90;99.90
65692;DHT22;52411;52.716;6.696;2022-10-31T04:18:50;8.90;99.90
65692;DHT22;52411;52.716;6.696;2022-10-31T04:21:15;8.90;99.90
65692;DHT22;52411;52.716;6.696;2022-10-31T04:23:42;9.00;99.90
65692;DHT22;52411;52.716;6.696;2022-10-31T04:26:10;9.00;99.90
65692;DHT22;52411;52.716;6.696;2022-10-31T04:28:36;8.90;99.90
65692;DHT22;52411;52.716;6.696;2022-10-31T04:31:02;9.00;99.90
65692;DHT22;52411;52.716;6.696;2022-10-31T04:33:27;9.00;99.90
65692;DHT22;52411;52.716;6.696;2022-10-31T04:35:53;9.00;99.90
65692;DHT22;52411;52.716;6.696;2022-10-31T04:38:18;9.00;99.90
65692;DHT22;52411;52.716;6.696;2022-10-31T04:40:45;8.90;99.90
65692;DHT22;52411;52.716;6.696;2022-10-31T04:43:11;8.80;99.90
65692;DHT22;52411;52.716;6.696;2022-10-31T04:45:37;8.80;99.90
65692;DHT22;52411;52.716;6.696;2022-10-31T04:48:02;8.70;99.90
65692;DHT22;52411;52.716;6.696;2022-10-31T04:50:28;8.50;99.90
65692;DHT22;52411;52.716;6.696;2022-10-31T04:52:54;8.50;99.90
65692;DHT22;52411;52.716;6.696;2022-10-31T04:55:19;8.50;99.90
65692;DHT22;52411;52.716;6.696;2022-10-31T04:57:47;8.50;99.90
65692;DHT22;52411;52.716;6.696;2022-10-31T05:00:15;8.50;99.90
65692;DHT22;52411;52.716;6.696;2022-10-31T05:02:48;8.60;99.90
65692;DHT22;52411;52.716;6.696;2022-10-31T05:05:15;8.50;99.90
65692;DHT22;52411;52.716;6.696;2022-10-31T05:07:42;8.50;99.90
65692;DHT22;52411;52.716;6.696;2022-10-31T05:10:13;8.50;99.90
65692;DHT22;52411;52.716;6.696;2022-10-31T05:12:46;8.50;99.90
65692;DHT22;52411;52.716;6.696;2022-10-31T05:15:12;8.50;99.90
65692;DHT22;52411;52.716;6.696;2022-10-31T05:17:37;8.60;99.90
65692;DHT22;52411;52.716;6.696;2022-10-31T05:20:03;8.70;99.90
65692;DHT22;52411;52.716;6.696;2022-10-31T05:22:29;8.60;99.90
65692;DHT22;52411;52.716;6.696;2022-10-31T05:24:55;8.30;99.90
65692;DHT22;52411;52.716;6.696;2022-10-31T05:27:20;8.00;99.90
65692;DHT22;52411;52.716;6.696;2022-10-31T05:29:46;7.90;99.90
65692;DHT22;52411;52.716;6.696;2022-10-31T05:32:12;7.90;99.90
65692;DHT22;52411;52.716;6.696;2022-10-31T05:34:37;8.00;99.90
65692;DHT22;52411;52.716;6.696;2022-10-31T05:37:03;8.00;99.90
65692;DHT22;52411;52.716;6.696;2022-10-31T05:39:28;8.10;99.90
65692;DHT22;52411;52.716;6.696;2022-10-31T05:41:54;8.10;99.90
65692;DHT22;52411;52.716;6.696;2022-10-31T05:44:19;8.00;99.90
65692;DHT22;52411;52.716;6.696;2022-10-31T05:46:46;8.00;99.90
65692;DHT22;52411;52.716;6.696;2022-10-31T05:49:12;7.90;99.90
65692;DHT22;52411;52.716;6.696;2022-10-31T05:51:37;7.90;99.90
65692;DHT22;52411;52.716;6.696;2022-10-31T05:54:03;7.80;99.90
65692;DHT22;52411;52.716;6.696;2022-10-31T05:56:29;7.80;99.90
65692;DHT22;52411;52.716;6.696;2022-10-31T05:58:54;7.60;99.90
65692;DHT22;52411;52.716;6.696;2022-10-31T06:01:20;7.50;99.90
65692;DHT22;52411;52.716;6.696;2022-10-31T06:03:46;7.50;99.90
65692;DHT22;52411;52.716;6.696;2022-10-31T06:06:11;7.40;99.90
65692;DHT22;52411;52.716;6.696;2022-10-31T06:08:37;7.60;99.90
65692;DHT22;52411;52.716;6.696;2022-10-31T06:11:02;7.70;99.90
65692;DHT22;52411;52.716;6.696;2022-10-31T06:13:28;7.80;99.90
65692;DHT22;52411;52.716;6.696;2022-10-31T06:15:53;7.80;99.90
65692;DHT22;52411;52.716;6.696;2022-10-31T06:18:19;7.80;99.90
65692;DHT22;52411;52.716;6.696;2022-10-31T06:20:45;7.70;99.90
65692;DHT22;52411;52.716;6.696;2022-10-31T06:23:10;7.70;99.90
65692;DHT22;52411;52.716;6.696;2022-10-31T06:25:36;7.90;99.90
65692;DHT22;52411;52.716;6.696;2022-10-31T06:28:01;7.90;99.90
65692;DHT22;52411;52.716;6.696;2022-10-31T06:30:27;8.00;99.90
65692;DHT22;52411;52.716;6.696;2022-10-31T06:32:53;8.00;99.90
65692;DHT22;52411;52.716;6.696;2022-10-31T06:35:18;8.20;99.90
65692;DHT22;52411;52.716;6.696;2022-10-31T06:37:53;8.40;99.90
65692;DHT22;52411;52.716;6.696;2022-10-31T06:40:19;8.60;99.90
65692;DHT22;52411;52.716;6.696;2022-10-31T06:42:44;8.60;99.90
65692;DHT22;52411;52.716;6.696;2022-10-31T06:45:10;8.70;99.90
65692;DHT22;52411;52.716;6.696;2022-10-31T06:47:35;8.60;99.90
65692;DHT22;52411;52.716;6.696;2022-10-31T06:50:01;8.50;99.90
65692;DHT22;52411;52.716;6.696;2022-10-31T06:52:26;8.50;99.90
65692;DHT22;52411;52.716;6.696;2022-10-31T06:54:52;8.50;99.90
65692;DHT22;52411;52.716;6.696;2022-10-31T06:57:18;8.40;99.90
65692;DHT22;52411;52.716;6.696;2022-10-31T06:59:43;8.40;99.90
65692;DHT22;52411;52.716;6.696;2022-10-31T07:02:10;8.30;99.90
65692;DHT22;52411;52.716;6.696;2022-10-31T07:04:36;8.30;99.90
65692;DHT22;52411;52.716;6.696;2022-10-31T07:07:01;8.40;99.90
65692;DHT22;52411;52.716;6.696;2022-10-31T07:09:27;8.50;99.90
65692;DHT22;52411;52.716;6.696;2022-10-31T07:11:53;8.40;99.90
65692;DHT22;52411;52.716;6.696;2022-10-31T07:14:19;8.30;99.90
65692;DHT22;52411;52.716;6.696;2022-10-31T07:16:48;8.20;99.90
65692;DHT22;52411;52.716;6.696;2022-10-31T07:19:14;8.20;99.90
65692;DHT22;52411;52.716;6.696;2022-10-31T07:21:40;8.10;99.90
65692;DHT22;52411;52.716;6.696;2022-10-31T07:24:05;8.10;99.90
65692;DHT22;52411;52.716;6.696;2022-10-31T07:26:31;8.00;99.90
65692;DHT22;52411;52.716;6.696;2022-10-31T07:28:57;8.00;99.90
65692;DHT22;52411;52.716;6.696;2022-10-31T07:31:24;8.10;99.90
65692;DHT22;52411;52.716;6.696;2022-10-31T07:33:50;8.20;99.90
65692;DHT22;52411;52.716;6.696;2022-10-31T07:36:16;8.30;99.90
65692;DHT22;52411;52.716;6.696;2022-10-31T07:38:41;8.50;99.90
65692;DHT22;52411;52.716;6.696;2022-10-31T07:41:07;8.60;99.90
65692;DHT22;52411;52.716;6.696;2022-10-31T07:43:33;8.60;99.90
65692;DHT22;52411;52.716;6.696;2022-10-31T07:45:58;8.60;99.90
65692;DHT22;52411;52.716;6.696;2022-10-31T07:48:24;8.60;99.90
65692;DHT22;52411;52.716;6.696;2022-10-31T07:50:49;8.60;99.90
65692;DHT22;52411;52.716;6.696;2022-10-31T07:53:15;8.70;99.90
65692;DHT22;52411;52.716;6.696;2022-10-31T07:55:42;8.70;99.90
65692;DHT22;52411;52.716;6.696;2022-10-31T07:58:10;8.80;99.90
65692;DHT22;52411;52.716;6.696;2022-10-31T08:00:38;9.10;99.90
65692;DHT22;52411;52.716;6.696;2022-10-31T08:03:06;9.30;99.90
65692;DHT22;52411;52.716;6.696;2022-10-31T08:05:33;9.40;99.90
65692;DHT22;52411;52.716;6.696;2022-10-31T08:07:59;9.50;99.90
65692;DHT22;52411;52.716;6.696;2022-10-31T08:10:26;9.70;99.90
65692;DHT22;52411;52.716;6.696;2022-10-31T08:13:08;9.70;99.90
65692;DHT22;52411;52.716;6.696;2022-10-31T08:15:34;9.80;99.90
65692;DHT22;52411;52.716;6.696;2022-10-31T08:18:03;9.90;99.90
65692;DHT22;52411;52.716;6.696;2022-10-31T08:20:29;10.00;99.90
65692;DHT22;52411;52.716;6.696;2022-10-31T08:22:57;10.10;99.90
65692;DHT22;52411;52.716;6.696;2022-10-31T08:25:24;10.20;99.90
65692;DHT22;52411;52.716;6.696;2022-10-31T08:27:51;10.30;99.90
65692;DHT22;52411;52.716;6.696;2022-10-31T08:30:18;10.30;99.90
65692;DHT22;52411;52.716;6.696;2022-10-31T08:32:43;10.40;99.90
65692;DHT22;52411;52.716;6.696;2022-10-31T08:35:09;10.50;99.90
65692;DHT22;52411;52.716;6.696;2022-10-31T08:37:34;10.60;99.90
65692;DHT22;52411;52.716;6.696;2022-10-31T08:40:00;10.70;99.90
65692;DHT22;52411;52.716;6.696;2022-10-31T08:42:26;10.90;99.90
65692;DHT22;52411;52.716;6.696;2022-10-31T08:44:51;10.90;99.90
65692;DHT22;52411;52.716;6.696;2022-10-31T08:47:17;11.00;99.90
65692;DHT22;52411;52.716;6.696;2022-10-31T08:49:42;11.10;99.90
65692;DHT22;52411;52.716;6.696;2022-10-31T08:52:08;11.20;99.90
65692;DHT22;52411;52.716;6.696;2022-10-31T08:54:33;11.20;99.90
65692;DHT22;52411;52.716;6.696;2022-10-31T08:56:59;11.30;99.90
65692;DHT22;52411;52.716;6.696;2022-10-31T08:59:24;11.30;99.90
65692;DHT22;52411;52.716;6.696;2022-10-31T09:01:50;11.40;99.90
65692;DHT22;52411;52.716;6.696;2022-10-31T09:04:16;11.50;99.90
65692;DHT22;52411;52.716;6.696;2022-10-31T09:06:41;11.60;99.90
65692;DHT22;52411;52.716;6.696;2022-10-31T09:09:07;11.70;99.90
65692;DHT22;52411;52.716;6.696;2022-10-31T09:11:32;11.70;99.90
65692;DHT22;52411;52.716;6.696;2022-10-31T09:13:58;11.80;99.90
65692;DHT22;52411;52.716;6.696;2022-10-31T09:16:24;11.90;99.90
65692;DHT22;52411;52.716;6.696;2022-10-31T09:18:49;11.90;99.90
65692;DHT22;52411;52.716;6.696;2022-10-31T09:21:15;11.90;99.90
65692;DHT22;52411;52.716;6.696;2022-10-31T09:23:41;11.90;99.90
65692;DHT22;52411;52.716;6.696;2022-10-31T09:26:06;11.90;99.90
65692;DHT22;52411;52.716;6.696;2022-10-31T09:28:32;12.00;99.90
65692;DHT22;52411;52.716;6.696;2022-10-31T09:30:57;12.00;99.90
65692;DHT22;52411;52.716;6.696;2022-10-31T09:33:23;12.10;99.90
65692;DHT22;52411;52.716;6.696;2022-10-31T09:35:49;12.20;99.90
65692;DHT22;52411;52.716;6.696;2022-10-31T09:38:17;12.30;99.90
65692;DHT22;52411;52.716;6.696;2022-10-31T09:41:06;12.40;99.90
65692;DHT22;52411;52.716;6.696;2022-10-31T09:49:42;12.90;99.90
65692;DHT22;52411;52.716;6.696;2022-10-31T09:52:29;13.00;99.90
65692;DHT22;52411;52.716;6.696;2022-10-31T09:55:05;13.10;99.90
65692;DHT22;52411;52.716;6.696;2022-10-31T09:57:36;13.20;99.90
65692;DHT22;52411;52.716;6.696;2022-10-31T10:00:07;13.20;99.90
65692;DHT22;52411;52.716;6.696;2022-10-31T10:02:46;13.20;99.90
65692;DHT22;52411;52.716;6.696;2022-10-31T10:05:14;13.30;99.90
65692;DHT22;52411;52.716;6.696;2022-10-31T10:24:16;14.30;99.90
65692;DHT22;52411;52.716;6.696;2022-10-31T10:26:59;14.40;99.90
65692;DHT22;52411;52.716;6.696;2022-10-31T10:29:41;14.50;99.90
65692;DHT22;52411;52.716;6.696;2022-10-31T10:32:23;14.60;99.90
65692;DHT22;52411;52.716;6.696;2022-10-31T10:34:52;14.60;99.90
65692;DHT22;52411;52.716;6.696;2022-10-31T10:37:35;14.60;99.90
65692;DHT22;52411;52.716;6.696;2022-10-31T10:40:24;14.60;99.90
65692;DHT22;52411;52.716;6.696;2022-10-31T10:49:16;14.50;99.90
65692;DHT22;52411;52.716;6.696;2022-10-31T10:51:58;14.50;99.90
65692;DHT22;52411;52.716;6.696;2022-10-31T10:54:54;14.60;99.90
65692;DHT22;52411;52.716;6.696;2022-10-31T11:00:25;14.80;99.90
65692;DHT22;52411;52.716;6.696;2022-10-31T11:02:51;14.80;99.90
65692;DHT22;52411;52.716;6.696;2022-10-31T11:07:45;14.90;99.90
65692;DHT22;52411;52.716;6.696;2022-10-31T11:10:13;14.90;99.90
65692;DHT22;52411;52.716;6.696;2022-10-31T11:12:44;15.00;99.90
65692;DHT22;52411;52.716;6.696;2022-10-31T11:15:19;15.00;99.90
65692;DHT22;52411;52.716;6.696;2022-10-31T11:17:54;15.00;99.90
65692;DHT22;52411;52.716;6.696;2022-10-31T11:22:47;15.10;99.90
65692;DHT22;52411;52.716;6.696;2022-10-31T11:28:11;15.20;99.90
65692;DHT22;52411;52.716;6.696;2022-10-31T11:30:58;15.30;99.90
65692;DHT22;52411;52.716;6.696;2022-10-31T11:33:36;15.30;99.90
65692;DHT22;52411;52.716;6.696;2022-10-31T11:36:18;15.30;99.90
65692;DHT22;52411;52.716;6.696;2022-10-31T11:38:46;15.40;99.90
65692;DHT22;52411;52.716;6.696;2022-10-31T11:43:57;15.50;99.90
65692;DHT22;52411;52.716;6.696;2022-10-31T11:46:35;15.60;99.90
65692;DHT22;52411;52.716;6.696;2022-10-31T11:49:03;15.70;99.90
65692;DHT22;52411;52.716;6.696;2022-10-31T11:51:32;15.80;99.90
65692;DHT22;52411;52.716;6.696;2022-10-31T11:53:59;15.80;99.90
65692;DHT22;52411;52.716;6.696;2022-10-31T11:56:37;15.80;99.90
65692;DHT22;52411;52.716;6.696;2022-10-31T11:59:05;15.80;99.90
65692;DHT22;52411;52.716;6.696;2022-10-31T12:01:32;15.80;99.90
65692;DHT22;52411;52.716;6.696;2022-10-31T12:04:06;15.80;99.90
65692;DHT22;52411;52.716;6.696;2022-10-31T12:06:37;15.90;99.90
65692;DHT22;52411;52.716;6.696;2022-10-31T12:09:21;15.90;99.90
65692;DHT22;52411;52.716;6.696;2022-10-31T12:14:48;15.90;99.90
65692;DHT22;52411;52.716;6.696;2022-10-31T12:17:22;15.90;99.90
65692;DHT22;52411;52.716;6.696;2022-10-31T12:31:14;15.90;99.90
65692;DHT22;52411;52.716;6.696;2022-10-31T12:39:43;16.10;99.90
65692;DHT22;52411;52.716;6.696;2022-10-31T12:44:54;16.30;99.90
65692;DHT22;52411;52.716;6.696;2022-10-31T12:58:10;16.50;99.90
65692;DHT22;52411;52.716;6.696;2022-10-31T13:00:43;16.50;99.90
65692;DHT22;52411;52.716;6.696;2022-10-31T13:05:49;16.60;99.90
65692;DHT22;52411;52.716;6.696;2022-10-31T13:08:20;16.60;99.90
65692;DHT22;52411;52.716;6.696;2022-10-31T13:10:58;16.60;99.90
65692;DHT22;52411;52.716;6.696;2022-10-31T13:13:45;16.70;99.90
65692;DHT22;52411;52.716;6.696;2022-10-31T13:16:16;16.70;99.90
65692;DHT22;52411;52.716;6.696;2022-10-31T13:18:56;16.70;99.90
65692;DHT22;52411;52.716;6.696;2022-10-31T13:21:26;16.70;99.90
65692;DHT22;52411;52.716;6.696;2022-10-31T13:23:56;16.60;99.90
65692;DHT22;52411;52.716;6.696;2022-10-31T13:31:34;16.60;99.90
65692;DHT22;52411;52.716;6.696;2022-10-31T13:44:40;16.60;99.90
65692;DHT22;52411;52.716;6.696;2022-10-31T13:47:26;16.60;99.90
65692;DHT22;52411;52.716;6.696;2022-10-31T13:50:23;16.50;99.90
65692;DHT22;52411;52.716;6.696;2022-10-31T13:52:49;16.50;99.90
65692;DHT22;52411;52.716;6.696;2022-10-31T13:58:24;16.40;99.90
65692;DHT22;52411;52.716;6.696;2022-10-31T14:01:16;16.40;99.90
65692;DHT22;52411;52.716;6.696;2022-10-31T14:03:47;16.30;99.90
65692;DHT22;52411;52.716;6.696;2022-10-31T14:06:14;16.30;99.90
65692;DHT22;52411;52.716;6.696;2022-10-31T14:08:50;16.20;99.90
65692;DHT22;52411;52.716;6.696;2022-10-31T14:11:25;16.30;99.90
65692;DHT22;52411;52.716;6.696;2022-10-31T14:13:54;16.30;99.90
65692;DHT22;52411;52.716;6.696;2022-10-31T14:16:28;16.30;99.90
65692;DHT22;52411;52.716;6.696;2022-10-31T14:19:07;16.30;99.90
65692;DHT22;52411;52.716;6.696;2022-10-31T14:21:40;16.20;99.90
65692;DHT22;52411;52.716;6.696;2022-10-31T14:26:57;16.20;99.90
65692;DHT22;52411;52.716;6.696;2022-10-31T14:29:29;16.20;99.90
65692;DHT22;52411;52.716;6.696;2022-10-31T14:32:03;16.20;99.90
65692;DHT22;52411;52.716;6.696;2022-10-31T14:34:34;16.20;99.90
65692;DHT22;52411;52.716;6.696;2022-10-31T14:50:53;16.10;99.90
65692;DHT22;52411;52.716;6.696;2022-10-31T14:53:25;16.00;99.90
65692;DHT22;52411;52.716;6.696;2022-10-31T14:55:54;16.00;99.90
65692;DHT22;52411;52.716;6.696;2022-10-31T14:58:24;16.00;99.90
65692;DHT22;52411;52.716;6.696;2022-10-31T15:00:56;15.90;99.90
65692;DHT22;52411;52.716;6.696;2022-10-31T15:03:27;15.90;99.90
65692;DHT22;52411;52.716;6.696;2022-10-31T15:05:56;15.90;99.90
65692;DHT22;52411;52.716;6.696;2022-10-31T15:08:44;15.80;99.90
65692;DHT22;52411;52.716;6.696;2022-10-31T15:11:21;15.80;99.90
65692;DHT22;52411;52.716;6.696;2022-10-31T15:16:15;15.80;99.90
65692;DHT22;52411;52.716;6.696;2022-10-31T15:18:49;15.80;99.90
65692;DHT22;52411;52.716;6.696;2022-10-31T15:21:16;15.80;99.90
65692;DHT22;52411;52.716;6.696;2022-10-31T15:23:42;15.80;99.90
65692;DHT22;52411;52.716;6.696;2022-10-31T15:26:16;15.70;99.90
65692;DHT22;52411;52.716;6.696;2022-10-31T15:28:42;15.70;99.90
65692;DHT22;52411;52.716;6.696;2022-10-31T15:31:16;15.70;99.90
65692;DHT22;52411;52.716;6.696;2022-10-31T15:33:46;15.60;99.90
65692;DHT22;52411;52.716;6.696;2022-10-31T15:36:20;15.60;99.90
65692;DHT22;52411;52.716;6.696;2022-10-31T15:38:47;15.50;99.90
65692;DHT22;52411;52.716;6.696;2022-10-31T15:43:49;15.40;99.90
65692;DHT22;52411;52.716;6.696;2022-10-31T15:46:15;15.30;99.90
65692;DHT22;52411;52.716;6.696;2022-10-31T15:48:45;15.30;99.90
65692;DHT22;52411;52.716;6.696;2022-10-31T15:51:11;15.20;99.90
65692;DHT22;52411;52.716;6.696;2022-10-31T15:53:50;15.10;99.90
65692;DHT22;52411;52.716;6.696;2022-10-31T15:56:29;15.10;99.90
65692;DHT22;52411;52.716;6.696;2022-10-31T15:58:58;14.90;99.90
65692;DHT22;52411;52.716;6.696;2022-10-31T16:01:32;14.90;99.90
65692;DHT22;52411;52.716;6.696;2022-10-31T16:06:31;14.80;99.90
65692;DHT22;52411;52.716;6.696;2022-10-31T16:08:57;14.80;99.90
65692;DHT22;52411;52.716;6.696;2022-10-31T16:16:26;14.60;99.90
65692;DHT22;52411;52.716;6.696;2022-10-31T16:18:54;14.60;99.90
65692;DHT22;52411;52.716;6.696;2022-10-31T16:21:25;14.60;99.90
65692;DHT22;52411;52.716;6.696;2022-10-31T16:23:56;14.60;99.90
65692;DHT22;52411;52.716;6.696;2022-10-31T16:26:23;14.50;99.90
65692;DHT22;52411;52.716;6.696;2022-10-31T16:28:54;14.50;99.90
65692;DHT22;52411;52.716;6.696;2022-10-31T16:31:37;14.60;99.90
65692;DHT22;52411;52.716;6.696;2022-10-31T16:34:14;14.60;99.90
65692;DHT22;52411;52.716;6.696;2022-10-31T16:36:41;14.50;99.90
65692;DHT22;52411;52.716;6.696;2022-10-31T16:39:07;14.50;99.90
65692;DHT22;52411;52.716;6.696;2022-10-31T16:41:43;14.60;99.90
65692;DHT22;52411;52.716;6.696;2022-10-31T16:44:22;14.60;99.90
65692;DHT22;52411;52.716;6.696;2022-10-31T16:46:49;14.60;99.90
65692;DHT22;52411;52.716;6.696;2022-10-31T16:49:23;14.60;99.90
65692;DHT22;52411;52.716;6.696;2022-10-31T16:51:48;14.70;99.90
65692;DHT22;52411;52.716;6.696;2022-10-31T16:54:14;14.70;99.90
65692;DHT22;52411;52.716;6.696;2022-10-31T16:56:39;14.70;99.90
65692;DHT22;52411;52.716;6.696;2022-10-31T16:59:09;14.70;99.90
65692;DHT22;52411;52.716;6.696;2022-10-31T17:01:38;14.70;99.90
65692;DHT22;52411;52.716;6.696;2022-10-31T17:04:04;14.70;99.90
65692;DHT22;52411;52.716;6.696;2022-10-31T17:06:30;14.70;99.90
65692;DHT22;52411;52.716;6.696;2022-10-31T17:08:55;14.70;99.90
65692;DHT22;52411;52.716;6.696;2022-10-31T17:11:23;14.70;99.90
65692;DHT22;52411;52.716;6.696;2022-10-31T17:13:50;14.70;99.90
65692;DHT22;52411;52.716;6.696;2022-10-31T17:16:16;14.70;99.90
65692;DHT22;52411;52.716;6.696;2022-10-31T17:18:41;14.70;99.90
65692;DHT22;52411;52.716;6.696;2022-10-31T17:21:20;14.70;99.90
65692;DHT22;52411;52.716;6.696;2022-10-31T17:23:48;14.70;99.90
65692;DHT22;52411;52.716;6.696;2022-10-31T17:26:14;14.70;99.90
65692;DHT22;52411;52.716;6.696;2022-10-31T17:28:39;14.70;99.90
65692;DHT22;52411;52.716;6.696;2022-10-31T17:31:07;14.70;99.90
65692;DHT22;52411;52.716;6.696;2022-10-31T17:33:36;14.70;99.90
65692;DHT22;52411;52.716;6.696;2022-10-31T17:36:02;14.70;99.90
65692;DHT22;52411;52.716;6.696;2022-10-31T17:38:28;14.70;99.90
65692;DHT22;52411;52.716;6.696;2022-10-31T17:40:54;14.70;99.90
65692;DHT22;52411;52.716;6.696;2022-10-31T17:43:20;14.70;99.90
65692;DHT22;52411;52.716;6.696;2022-10-31T17:45:45;14.70;99.90
65692;DHT22;52411;52.716;6.696;2022-10-31T17:48:11;14.70;99.90
65692;DHT22;52411;52.716;6.696;2022-10-31T17:50:37;14.70;99.90
65692;DHT22;52411;52.716;6.696;2022-10-31T17:53:03;14.70;99.90
65692;DHT22;52411;52.716;6.696;2022-10-31T17:55:28;14.80;99.90
65692;DHT22;52411;52.716;6.696;2022-10-31T17:57:55;14.80;99.90
65692;DHT22;52411;52.716;6.696;2022-10-31T18:00:20;14.80;99.90
65692;DHT22;52411;52.716;6.696;2022-10-31T18:02:48;14.80;99.90
65692;DHT22;52411;52.716;6.696;2022-10-31T18:05:14;14.80;99.90
65692;DHT22;52411;52.716;6.696;2022-10-31T18:07:40;14.70;99.90
65692;DHT22;52411;52.716;6.696;2022-10-31T18:10:06;14.70;99.90
65692;DHT22;52411;52.716;6.696;2022-10-31T18:12:34;14.70;99.90
65692;DHT22;52411;52.716;6.696;2022-10-31T18:15:00;14.70;99.90
65692;DHT22;52411;52.716;6.696;2022-10-31T18:17:25;14.70;99.90
65692;DHT22;52411;52.716;6.696;2022-10-31T18:19:51;14.60;99.90
65692;DHT22;52411;52.716;6.696;2022-10-31T18:22:17;14.60;99.90
65692;DHT22;52411;52.716;6.696;2022-10-31T18:24:42;14.70;99.90
65692;DHT22;52411;52.716;6.696;2022-10-31T18:27:08;14.60;99.90
65692;DHT22;52411;52.716;6.696;2022-10-31T18:29:34;14.60;99.90
65692;DHT22;52411;52.716;6.696;2022-10-31T18:31:59;14.60;99.90
65692;DHT22;52411;52.716;6.696;2022-10-31T18:34:25;14.60;99.90